sensor_id;sensor_type;location;lat;lon;timestamp;temperature;humidity
29007;DHT22;16104;48.642;9.008;2022-09-13T01:00:58;18.20;54.90
29007;DHT22;16104;48.642;9.008;2022-09-13T01:05:59;18.20;55.30
29007;DHT22;16104;48.642;9.008;2022-09-13T01:10:57;18.20;55.40
29007;DHT22;16104;48.642;9.008;2022-09-13T02:02:04;17.90;56.40
29007;DHT22;16104;48.642;9.008;2022-09-13T02:07:10;17.80;57.10
29007;DHT22;16104;48.642;9.008;2022-09-13T02:12:16;17.80;57.00
29007;DHT22;16104;48.642;9.008;2022-09-13T03:03:04;17.60;57.40
29007;DHT22;16104;48.642;9.008;2022-09-13T03:08:00;17.60;57.40
29007;DHT22;16104;48.642;9.008;2022-09-13T03:39:51;17.50;58.20
29007;DHT22;16104;48.642;9.008;2022-09-13T03:44:49;17.50;58.20
29007;DHT22;16104;48.642;9.008;2022-09-13T03:49:45;17.50;58.30
29007;DHT22;16104;48.642;9.008;2022-09-13T03:54:41;17.50;58.10
29007;DHT22;16104;48.642;9.008;2022-09-13T03:59:40;17.50;58.00
29007;DHT22;16104;48.642;9.008;2022-09-13T04:04:41;17.50;58.00
29007;DHT22;16104;48.642;9.008;2022-09-13T04:09:37;17.50;58.60
29007;DHT22;16104;48.642;9.008;2022-09-13T04:14:33;17.50;58.40
29007;DHT22;16104;48.642;9.008;2022-09-13T04:19:29;17.50;58.30
29007;DHT22;16104;48.642;9.008;2022-09-13T04:24:28;17.50;58.40
29007;DHT22;16104;48.642;9.008;2022-09-13T04:29:24;17.50;58.60
29007;DHT22;16104;48.642;9.008;2022-09-13T04:34:20;17.50;58.70
29007;DHT22;16104;48.642;9.008;2022-09-13T04:39:20;17.40;58.40
29007;DHT22;16104;48.642;9.008;2022-09-13T04:44:16;17.40;59.20
29007;DHT22;16104;48.642;9.008;2022-09-13T04:49:12;17.40;58.50
29007;DHT22;16104;48.642;9.008;2022-09-13T04:54:09;17.30;58.70
29007;DHT22;16104;48.642;9.008;2022-09-13T04:59:04;17.30;58.80
29007;DHT22;16104;48.642;9.008;2022-09-13T05:04:01;17.20;58.70
29007;DHT22;16104;48.642;9.008;2022-09-13T05:08:57;17.20;58.90
29007;DHT22;16104;48.642;9.008;2022-09-13T05:13:54;17.20;59.00
29007;DHT22;16104;48.642;9.008;2022-09-13T05:18:50;17.20;59.10
29007;DHT22;16104;48.642;9.008;2022-09-13T05:23:49;17.10;59.20
29007;DHT22;16104;48.642;9.008;2022-09-13T05:28:45;17.10;59.30
29007;DHT22;16104;48.642;9.008;2022-09-13T05:33:41;17.10;59.40
29007;DHT22;16104;48.642;9.008;2022-09-13T05:38:37;17.10;60.30
29007;DHT22;16104;48.642;9.008;2022-09-13T05:43:34;17.10;59.60
29007;DHT22;16104;48.642;9.008;2022-09-13T05:48:31;17.10;59.70
29007;DHT22;16104;48.642;9.008;2022-09-13T05:53:26;17.10;59.70
29007;DHT22;16104;48.642;9.008;2022-09-13T05:58:22;17.10;59.70
29007;DHT22;16104;48.642;9.008;2022-09-13T06:03:17;17.10;60.00
29007;DHT22;16104;48.642;9.008;2022-09-13T06:08:13;17.10;60.00
29007;DHT22;16104;48.642;9.008;2022-09-13T06:13:09;17.10;60.20
29007;DHT22;16104;48.642;9.008;2022-09-13T06:18:04;17.10;60.30
29007;DHT22;16104;48.642;9.008;2022-09-13T06:23:00;17.20;60.20
29007;DHT22;16104;48.642;9.008;2022-09-13T06:27:55;17.30;60.20
29007;DHT22;16104;48.642;9.008;2022-09-13T06:32:51;17.30;60.20
29007;DHT22;16104;48.642;9.008;2022-09-13T06:43:39;17.40;60.40
29007;DHT22;16104;48.642;9.008;2022-09-13T06:48:36;17.40;60.00
29007;DHT22;16104;48.642;9.008;2022-09-13T06:53:33;17.50;60.30
29007;DHT22;16104;48.642;9.008;2022-09-13T06:58:30;17.60;60.40
29007;DHT22;16104;48.642;9.008;2022-09-13T07:03:26;17.80;60.60
29007;DHT22;16104;48.642;9.008;2022-09-13T07:08:22;17.90;60.40
29007;DHT22;16104;48.642;9.008;2022-09-13T07:13:17;18.10;60.30
29007;DHT22;16104;48.642;9.008;2022-09-13T07:18:13;18.30;60.30
29007;DHT22;16104;48.642;9.008;2022-09-13T07:23:09;18.50;60.30
29007;DHT22;16104;48.642;9.008;2022-09-13T07:28:04;18.70;60.20
29007;DHT22;16104;48.642;9.008;2022-09-13T07:33:00;18.90;60.10
29007;DHT22;16104;48.642;9.008;2022-09-13T07:37:56;19.20;60.10
29007;DHT22;16104;48.642;9.008;2022-09-13T07:42:51;19.40;59.90
29007;DHT22;16104;48.642;9.008;2022-09-13T07:47:47;19.60;60.00
29007;DHT22;16104;48.642;9.008;2022-09-13T07:52:43;19.80;59.80
29007;DHT22;16104;48.642;9.008;2022-09-13T07:57:38;20.10;59.30
29007;DHT22;16104;48.642;9.008;2022-09-13T08:02:34;20.30;58.90
29007;DHT22;16104;48.642;9.008;2022-09-13T08:07:31;20.50;58.60
29007;DHT22;16104;48.642;9.008;2022-09-13T08:12:27;20.80;58.40
29007;DHT22;16104;48.642;9.008;2022-09-13T08:17:23;21.00;58.00
29007;DHT22;16104;48.642;9.008;2022-09-13T08:22:18;21.20;57.70
29007;DHT22;16104;48.642;9.008;2022-09-13T08:27:14;21.50;58.00
29007;DHT22;16104;48.642;9.008;2022-09-13T08:32:10;21.90;57.60
29007;DHT22;16104;48.642;9.008;2022-09-13T08:37:05;22.10;57.20
29007;DHT22;16104;48.642;9.008;2022-09-13T08:42:28;22.40;56.00
29007;DHT22;16104;48.642;9.008;2022-09-13T08:47:49;22.60;56.00
29007;DHT22;16104;48.642;9.008;2022-09-13T08:53:13;22.90;55.00
29007;DHT22;16104;48.642;9.008;2022-09-13T08:58:41;23.20;55.10
29007;DHT22;16104;48.642;9.008;2022-09-13T09:04:04;23.50;54.30
29007;DHT22;16104;48.642;9.008;2022-09-13T09:09:27;23.80;54.50
29007;DHT22;16104;48.642;9.008;2022-09-13T09:14:30;24.10;54.40
29007;DHT22;16104;48.642;9.008;2022-09-13T09:19:34;24.40;53.00
29007;DHT22;16104;48.642;9.008;2022-09-13T09:24:33;24.70;51.80
29007;DHT22;16104;48.642;9.008;2022-09-13T09:29:32;25.00;51.60
29007;DHT22;16104;48.642;9.008;2022-09-13T09:34:48;25.30;51.50
29007;DHT22;16104;48.642;9.008;2022-09-13T09:39:48;25.60;50.40
29007;DHT22;16104;48.642;9.008;2022-09-13T09:44:51;25.90;48.80
29007;DHT22;16104;48.642;9.008;2022-09-13T09:49:54;26.20;48.40
29007;DHT22;16104;48.642;9.008;2022-09-13T10:00:56;26.80;46.40
29007;DHT22;16104;48.642;9.008;2022-09-13T10:06:07;27.10;44.50
29007;DHT22;16104;48.642;9.008;2022-09-13T10:11:05;27.40;43.30
29007;DHT22;16104;48.642;9.008;2022-09-13T10:16:25;27.60;44.40
29007;DHT22;16104;48.642;9.008;2022-09-13T10:21:23;27.90;43.60
29007;DHT22;16104;48.642;9.008;2022-09-13T10:26:24;28.00;43.40
29007;DHT22;16104;48.642;9.008;2022-09-13T10:31:27;28.20;42.80
29007;DHT22;16104;48.642;9.008;2022-09-13T10:36:28;28.40;43.00
29007;DHT22;16104;48.642;9.008;2022-09-13T10:41:27;28.60;41.90
29007;DHT22;16104;48.642;9.008;2022-09-13T10:46:24;28.80;41.20
29007;DHT22;16104;48.642;9.008;2022-09-13T10:56:25;29.30;39.60
29007;DHT22;16104;48.642;9.008;2022-09-13T11:01:46;29.50;39.40
29007;DHT22;16104;48.642;9.008;2022-09-13T11:07:21;29.70;39.30
29007;DHT22;16104;48.642;9.008;2022-09-13T11:12:27;29.80;39.70
29007;DHT22;16104;48.642;9.008;2022-09-13T11:23:20;30.20;38.20
29007;DHT22;16104;48.642;9.008;2022-09-13T11:34:33;30.30;36.10
29007;DHT22;16104;48.642;9.008;2022-09-13T11:39:33;30.40;36.90
29007;DHT22;16104;48.642;9.008;2022-09-13T11:55:04;30.90;39.10
29007;DHT22;16104;48.642;9.008;2022-09-13T12:00:14;31.00;33.50
29007;DHT22;16104;48.642;9.008;2022-09-13T12:05:21;31.10;34.30
29007;DHT22;16104;48.642;9.008;2022-09-13T12:15:35;31.20;32.10
29007;DHT22;16104;48.642;9.008;2022-09-13T12:20:57;31.30;32.60
29007;DHT22;16104;48.642;9.008;2022-09-13T12:26:02;31.20;31.90
29007;DHT22;16104;48.642;9.008;2022-09-13T12:31:04;31.20;32.50
29007;DHT22;16104;48.642;9.008;2022-09-13T12:41:26;31.40;32.70
29007;DHT22;16104;48.642;9.008;2022-09-13T12:46:54;31.70;33.20
29007;DHT22;16104;48.642;9.008;2022-09-13T13:07:26;32.70;32.40
29007;DHT22;16104;48.642;9.008;2022-09-13T13:12:31;32.70;31.80
29007;DHT22;16104;48.642;9.008;2022-09-13T13:17:52;32.70;32.20
29007;DHT22;16104;48.642;9.008;2022-09-13T13:22:49;32.60;31.40
29007;DHT22;16104;48.642;9.008;2022-09-13T13:27:45;32.60;31.50
29007;DHT22;16104;48.642;9.008;2022-09-13T13:33:12;32.50;31.70
29007;DHT22;16104;48.642;9.008;2022-09-13T13:38:36;32.40;31.80
29007;DHT22;16104;48.642;9.008;2022-09-13T13:43:33;32.30;30.70
29007;DHT22;16104;48.642;9.008;2022-09-13T13:48:38;32.20;30.20
29007;DHT22;16104;48.642;9.008;2022-09-13T13:53:35;32.20;30.00
29007;DHT22;16104;48.642;9.008;2022-09-13T13:58:49;32.10;30.70
29007;DHT22;16104;48.642;9.008;2022-09-13T14:04:09;32.10;32.50
29007;DHT22;16104;48.642;9.008;2022-09-13T14:20:08;32.70;30.30
29007;DHT22;16104;48.642;9.008;2022-09-13T14:35:36;33.70;28.20
29007;DHT22;16104;48.642;9.008;2022-09-13T14:40:32;34.00;28.70
29007;DHT22;16104;48.642;9.008;2022-09-13T14:45:34;34.20;28.60
29007;DHT22;16104;48.642;9.008;2022-09-13T14:50:36;34.20;27.30
29007;DHT22;16104;48.642;9.008;2022-09-13T14:55:41;34.20;27.50
29007;DHT22;16104;48.642;9.008;2022-09-13T15:00:48;34.20;27.10
29007;DHT22;16104;48.642;9.008;2022-09-13T15:05:56;34.10;26.50
29007;DHT22;16104;48.642;9.008;2022-09-13T15:10:52;33.90;26.20
29007;DHT22;16104;48.642;9.008;2022-09-13T15:15:51;33.80;27.30
29007;DHT22;16104;48.642;9.008;2022-09-13T15:20:50;33.60;26.80
29007;DHT22;16104;48.642;9.008;2022-09-13T15:25:48;33.40;27.20
29007;DHT22;16104;48.642;9.008;2022-09-13T15:30:44;33.30;27.00
29007;DHT22;16104;48.642;9.008;2022-09-13T15:35:42;33.10;27.60
29007;DHT22;16104;48.642;9.008;2022-09-13T15:40:47;33.00;27.70
29007;DHT22;16104;48.642;9.008;2022-09-13T15:45:51;32.80;27.50
29007;DHT22;16104;48.642;9.008;2022-09-13T15:51:12;32.60;27.10
29007;DHT22;16104;48.642;9.008;2022-09-13T15:56:14;32.50;27.30
29007;DHT22;16104;48.642;9.008;2022-09-13T16:01:12;32.20;27.30
29007;DHT22;16104;48.642;9.008;2022-09-13T16:06:08;32.10;27.30
29007;DHT22;16104;48.642;9.008;2022-09-13T16:11:05;31.90;28.10
29007;DHT22;16104;48.642;9.008;2022-09-13T16:16:01;31.70;27.70
29007;DHT22;16104;48.642;9.008;2022-09-13T16:20:57;31.60;28.00
29007;DHT22;16104;48.642;9.008;2022-09-13T16:25:55;31.40;27.90
29007;DHT22;16104;48.642;9.008;2022-09-13T16:30:51;31.10;28.10
29007;DHT22;16104;48.642;9.008;2022-09-13T16:35:47;31.00;28.20
29007;DHT22;16104;48.642;9.008;2022-09-13T16:40:43;30.80;28.40
29007;DHT22;16104;48.642;9.008;2022-09-13T16:45:39;30.60;29.00
29007;DHT22;16104;48.642;9.008;2022-09-13T16:50:38;30.50;29.00
29007;DHT22;16104;48.642;9.008;2022-09-13T16:55:34;30.30;29.20
29007;DHT22;16104;48.642;9.008;2022-09-13T17:00:30;30.10;29.30
29007;DHT22;16104;48.642;9.008;2022-09-13T17:05:25;30.00;29.80
29007;DHT22;16104;48.642;9.008;2022-09-13T17:10:21;29.80;30.00
29007;DHT22;16104;48.642;9.008;2022-09-13T17:15:17;29.60;30.20
29007;DHT22;16104;48.642;9.008;2022-09-13T17:20:12;29.50;30.60
29007;DHT22;16104;48.642;9.008;2022-09-13T17:25:09;29.30;30.70
29007;DHT22;16104;48.642;9.008;2022-09-13T17:30:05;29.20;30.90
29007;DHT22;16104;48.642;9.008;2022-09-13T17:35:01;29.00;31.40
29007;DHT22;16104;48.642;9.008;2022-09-13T17:39:56;28.90;31.80
29007;DHT22;16104;48.642;9.008;2022-09-13T17:44:51;28.70;32.20
29007;DHT22;16104;48.642;9.008;2022-09-13T17:49:47;28.50;32.40
29007;DHT22;16104;48.642;9.008;2022-09-13T17:54:43;28.40;32.90
29007;DHT22;16104;48.642;9.008;2022-09-13T17:59:38;28.20;33.30
29007;DHT22;16104;48.642;9.008;2022-09-13T18:04:34;28.00;33.40
29007;DHT22;16104;48.642;9.008;2022-09-13T18:09:29;27.80;33.90
29007;DHT22;16104;48.642;9.008;2022-09-13T18:14:25;27.70;34.40
29007;DHT22;16104;48.642;9.008;2022-09-13T18:19:22;27.50;34.70
29007;DHT22;16104;48.642;9.008;2022-09-13T18:24:17;27.30;34.90
29007;DHT22;16104;48.642;9.008;2022-09-13T18:29:13;27.20;35.40
29007;DHT22;16104;48.642;9.008;2022-09-13T18:34:10;27.10;35.80
29007;DHT22;16104;48.642;9.008;2022-09-13T18:39:12;26.90;36.20
29007;DHT22;16104;48.642;9.008;2022-09-13T18:44:09;26.80;36.50
29007;DHT22;16104;48.642;9.008;2022-09-13T18:49:06;26.70;36.90
29007;DHT22;16104;48.642;9.008;2022-09-13T18:54:03;26.50;37.20
29007;DHT22;16104;48.642;9.008;2022-09-13T18:59:00;26.50;37.50
29007;DHT22;16104;48.642;9.008;2022-09-13T19:09:06;26.20;38.50
29007;DHT22;16104;48.642;9.008;2022-09-13T19:14:02;26.10;39.20
29007;DHT22;16104;48.642;9.008;2022-09-13T19:18:58;26.00;38.90
29007;DHT22;16104;48.642;9.008;2022-09-13T19:23:54;25.90;40.20
29007;DHT22;16104;48.642;9.008;2022-09-13T19:28:59;25.80;39.80
29007;DHT22;16104;48.642;9.008;2022-09-13T19:33:59;25.70;40.60
29007;DHT22;16104;48.642;9.008;2022-09-13T19:38:57;25.60;40.30
29007;DHT22;16104;48.642;9.008;2022-09-13T19:43:55;25.50;40.80
29007;DHT22;16104;48.642;9.008;2022-09-13T19:48:52;25.40;40.90
29007;DHT22;16104;48.642;9.008;2022-09-13T19:53:50;25.40;41.50
29007;DHT22;16104;48.642;9.008;2022-09-13T19:58:49;25.30;41.80
29007;DHT22;16104;48.642;9.008;2022-09-13T20:03:56;25.20;41.60
29007;DHT22;16104;48.642;9.008;2022-09-13T20:08:56;25.10;41.90
29007;DHT22;16104;48.642;9.008;2022-09-13T20:13:51;25.00;41.60
29007;DHT22;16104;48.642;9.008;2022-09-13T20:18:47;25.00;41.60
29007;DHT22;16104;48.642;9.008;2022-09-13T20:23:44;24.90;41.70
29007;DHT22;16104;48.642;9.008;2022-09-13T20:28:40;24.90;41.70
29007;DHT22;16104;48.642;9.008;2022-09-13T20:33:36;24.80;41.90
29007;DHT22;16104;48.642;9.008;2022-09-13T20:38:33;24.70;42.10
29007;DHT22;16104;48.642;9.008;2022-09-13T20:43:28;24.70;42.20
29007;DHT22;16104;48.642;9.008;2022-09-13T20:48:24;24.60;42.40
29007;DHT22;16104;48.642;9.008;2022-09-13T20:53:20;24.60;42.90
29007;DHT22;16104;48.642;9.008;2022-09-13T20:58:15;24.50;42.90
29007;DHT22;16104;48.642;9.008;2022-09-13T21:03:11;24.50;43.40
29007;DHT22;16104;48.642;9.008;2022-09-13T21:08:12;24.40;43.30
29007;DHT22;16104;48.642;9.008;2022-09-13T21:13:39;24.40;43.50
29007;DHT22;16104;48.642;9.008;2022-09-13T21:18:36;24.30;43.70
29007;DHT22;16104;48.642;9.008;2022-09-13T21:23:34;24.20;43.60
29007;DHT22;16104;48.642;9.008;2022-09-13T21:28:33;24.20;43.80
29007;DHT22;16104;48.642;9.008;2022-09-13T21:33:29;24.10;43.90
29007;DHT22;16104;48.642;9.008;2022-09-13T21:38:26;24.10;44.20
29007;DHT22;16104;48.642;9.008;2022-09-13T21:43:23;24.00;44.40
29007;DHT22;16104;48.642;9.008;2022-09-13T21:48:19;24.00;44.60
29007;DHT22;16104;48.642;9.008;2022-09-13T21:53:15;24.00;44.80
29007;DHT22;16104;48.642;9.008;2022-09-13T21:58:10;23.90;44.90
29007;DHT22;16104;48.642;9.008;2022-09-13T22:03:09;23.90;45.10
29007;DHT22;16104;48.642;9.008;2022-09-13T22:08:04;23.90;45.90
29007;DHT22;16104;48.642;9.008;2022-09-13T22:13:00;23.80;46.30
29007;DHT22;16104;48.642;9.008;2022-09-13T22:17:56;23.80;46.50
29007;DHT22;16104;48.642;9.008;2022-09-13T22:22:51;23.70;47.00
29007;DHT22;16104;48.642;9.008;2022-09-13T22:27:47;23.60;46.80
29007;DHT22;16104;48.642;9.008;2022-09-13T22:32:42;23.50;47.30
29007;DHT22;16104;48.642;9.008;2022-09-13T22:37:38;23.50;47.60
29007;DHT22;16104;48.642;9.008;2022-09-13T22:42:34;23.50;47.80
29007;DHT22;16104;48.642;9.008;2022-09-13T22:47:29;23.40;48.40
29007;DHT22;16104;48.642;9.008;2022-09-13T22:52:25;23.40;48.50
29007;DHT22;16104;48.642;9.008;2022-09-13T22:57:21;23.30;48.60
29007;DHT22;16104;48.642;9.008;2022-09-13T23:02:16;23.30;48.90
29007;DHT22;16104;48.642;9.008;2022-09-13T23:07:12;23.30;48.80
29007;DHT22;16104;48.642;9.008;2022-09-13T23:12:07;23.20;49.30
29007;DHT22;16104;48.642;9.008;2022-09-13T23:17:03;23.20;49.10
29007;DHT22;16104;48.642;9.008;2022-09-13T23:21:58;23.10;49.00
29007;DHT22;16104;48.642;9.008;2022-09-13T23:26:54;23.10;49.50
29007;DHT22;16104;48.642;9.008;2022-09-13T23:31:50;23.10;49.10
29007;DHT22;16104;48.642;9.008;2022-09-13T23:36:46;23.00;49.40
29007;DHT22;16104;48.642;9.008;2022-09-13T23:41:44;23.00;49.30
29007;DHT22;16104;48.642;9.008;2022-09-13T23:46:40;23.00;49.40
29007;DHT22;16104;48.642;9.008;2022-09-13T23:51:36;23.00;49.60
29007;DHT22;16104;48.642;9.008;2022-09-13T23:56:32;23.00;49.30
